createdAt,value
2023-05-05T00:00:14.219Z,25.56
2023-05-05T00:01:14.212Z,25.51
2023-05-05T00:02:14.222Z,25.54
2023-05-05T00:03:14.378Z,25.54
2023-05-05T00:04:14.311Z,25.53
2023-05-05T00:05:14.284Z,25.51
2023-05-05T00:06:14.276Z,25.56
2023-05-05T00:07:14.326Z,25.62
2023-05-05T00:08:14.414Z,25.60
2023-05-05T00:09:14.323Z,25.58
2023-05-05T00:10:14.325Z,25.57
2023-05-05T00:11:14.414Z,25.62
2023-05-05T00:12:14.376Z,25.63
2023-05-05T00:13:14.490Z,25.66
2023-05-05T00:14:14.451Z,25.63
2023-05-05T00:15:14.458Z,25.62
2023-05-05T00:16:14.470Z,25.60
2023-05-05T00:17:14.537Z,25.60
2023-05-05T00:18:14.513Z,25.59
2023-05-05T00:19:14.486Z,25.63
2023-05-05T00:20:14.490Z,25.63
2023-05-05T00:21:14.558Z,25.64
2023-05-05T00:22:14.575Z,25.66
2023-05-05T00:23:14.569Z,25.67
2023-05-05T00:24:14.598Z,25.66
2023-05-05T00:25:14.586Z,25.65
2023-05-05T00:26:14.622Z,25.64
2023-05-05T00:27:14.640Z,25.69
2023-05-05T00:28:14.621Z,25.70
2023-05-05T00:29:14.653Z,25.70
2023-05-05T00:30:14.727Z,25.70
2023-05-05T00:31:14.755Z,25.69
2023-05-05T00:32:14.781Z,25.70
2023-05-05T00:33:14.802Z,25.67
2023-05-05T00:34:14.802Z,25.69
2023-05-05T00:35:14.806Z,25.72
2023-05-05T00:36:14.823Z,25.73
2023-05-05T00:37:14.920Z,25.72
2023-05-05T00:38:14.870Z,25.73
2023-05-05T00:39:14.926Z,25.72
2023-05-05T00:40:14.953Z,25.76
2023-05-05T00:41:14.959Z,25.69
2023-05-05T00:42:15.012Z,25.75
2023-05-05T00:43:15.013Z,25.74
2023-05-05T00:44:15.012Z,25.73
2023-05-05T00:45:15.018Z,25.79
2023-05-05T00:46:15.147Z,25.75
2023-05-05T00:47:15.106Z,25.73
2023-05-05T00:48:15.156Z,25.74
2023-05-05T00:49:15.231Z,25.73
2023-05-05T00:50:15.146Z,25.76
2023-05-05T00:51:15.230Z,25.76
2023-05-05T00:52:15.168Z,25.73
2023-05-05T00:53:15.201Z,25.79
2023-05-05T00:54:15.302Z,25.79
2023-05-05T00:55:15.400Z,25.79
2023-05-05T00:56:15.227Z,25.77
2023-05-05T00:57:15.323Z,25.79
2023-05-05T00:58:15.273Z,25.74
2023-05-05T00:59:15.345Z,25.77
2023-05-05T01:00:15.371Z,25.81
2023-05-05T01:01:15.481Z,25.80
2023-05-05T01:02:15.398Z,25.79
2023-05-05T01:03:15.516Z,25.77
2023-05-05T01:04:15.436Z,25.79
2023-05-05T01:05:15.492Z,25.79
2023-05-05T01:06:15.585Z,25.85
2023-05-05T01:07:15.488Z,25.80
2023-05-05T01:08:15.544Z,25.79
2023-05-05T01:09:15.550Z,25.76
2023-05-05T01:10:19.836Z,25.86
2023-05-05T01:11:16.587Z,25.79
2023-05-05T01:12:15.576Z,25.80
2023-05-05T01:13:15.571Z,25.83
2023-05-05T01:14:15.542Z,25.80
2023-05-05T01:15:15.534Z,25.80
2023-05-05T01:16:15.586Z,25.80
2023-05-05T01:17:15.549Z,25.79
2023-05-05T01:18:16.381Z,25.82
2023-05-05T01:19:15.519Z,25.85
2023-05-05T01:20:15.505Z,25.82
2023-05-05T01:21:15.508Z,25.80
2023-05-05T01:22:15.512Z,25.82
2023-05-05T01:23:15.503Z,25.83
2023-05-05T01:24:15.503Z,25.82
2023-05-05T01:25:15.517Z,25.81
2023-05-05T01:26:15.456Z,25.82
2023-05-05T01:27:15.477Z,25.82
2023-05-05T01:28:15.480Z,25.82
2023-05-05T01:29:15.482Z,25.80
2023-05-05T01:30:15.562Z,25.91
2023-05-05T01:31:15.625Z,25.87
2023-05-05T01:32:15.610Z,25.83
2023-05-05T01:33:15.669Z,25.82
2023-05-05T01:34:15.627Z,25.88
2023-05-05T01:35:15.680Z,25.81
2023-05-05T01:36:15.688Z,25.85
2023-05-05T01:37:15.636Z,25.86
2023-05-05T01:38:15.753Z,25.86
2023-05-05T01:39:15.749Z,25.83
2023-05-05T01:40:15.764Z,25.85
2023-05-05T01:41:15.736Z,25.83
2023-05-05T01:42:15.826Z,25.87
2023-05-05T01:43:15.842Z,25.86
2023-05-05T01:44:15.884Z,25.86
2023-05-05T01:45:15.943Z,25.89
2023-05-05T01:46:16.092Z,25.85
2023-05-05T01:47:16.026Z,25.85
2023-05-05T01:48:16.019Z,25.87
2023-05-05T01:49:16.020Z,25.87
2023-05-05T01:50:16.104Z,25.85
2023-05-05T01:51:16.114Z,25.89
2023-05-05T01:52:16.110Z,25.89
2023-05-05T01:53:16.101Z,25.89
2023-05-05T01:54:16.164Z,25.87
2023-05-05T01:55:16.164Z,25.87
2023-05-05T01:56:16.180Z,25.87
2023-05-05T01:57:16.172Z,25.90
2023-05-05T01:58:16.169Z,25.89
2023-05-05T01:59:16.195Z,25.86
2023-05-05T02:00:16.257Z,25.87
2023-05-05T02:01:16.271Z,25.89
2023-05-05T02:02:16.273Z,25.87
2023-05-05T02:03:16.387Z,25.92
2023-05-05T02:04:16.431Z,25.86
2023-05-05T02:05:16.365Z,25.89
2023-05-05T02:06:16.338Z,25.87
2023-05-05T02:07:16.461Z,25.87
2023-05-05T02:08:16.404Z,25.86
2023-05-05T02:09:16.416Z,25.93
2023-05-05T02:10:16.420Z,25.90
2023-05-05T02:11:16.445Z,25.85
2023-05-05T02:12:16.484Z,25.90
2023-05-05T02:13:16.700Z,25.86
2023-05-05T02:14:16.508Z,25.87
2023-05-05T02:15:16.604Z,25.92
2023-05-05T02:16:16.649Z,25.92
2023-05-05T02:17:16.598Z,25.92
2023-05-05T02:18:16.586Z,25.90
2023-05-05T02:19:16.616Z,25.93
2023-05-05T02:20:16.607Z,25.87
2023-05-05T02:21:16.618Z,25.90
2023-05-05T02:22:16.714Z,25.93
2023-05-05T02:23:16.714Z,25.93
2023-05-05T02:24:16.726Z,25.90
2023-05-05T02:25:16.800Z,25.89
2023-05-05T02:26:16.836Z,25.89
2023-05-05T02:27:16.857Z,25.96
2023-05-05T02:28:16.876Z,25.86
2023-05-05T02:29:16.881Z,25.92
2023-05-05T02:30:16.940Z,25.87
2023-05-05T02:31:16.925Z,25.92
2023-05-05T02:32:17.106Z,25.93
2023-05-05T02:33:16.955Z,25.90
2023-05-05T02:34:17.005Z,25.87
2023-05-05T02:35:17.086Z,25.89
2023-05-05T02:36:17.022Z,25.92
2023-05-05T02:37:17.134Z,25.92
2023-05-05T02:38:17.217Z,25.89
2023-05-05T02:39:17.137Z,25.92
2023-05-05T02:40:17.151Z,25.90
2023-05-05T02:41:17.205Z,25.92
2023-05-05T02:42:17.155Z,25.93
2023-05-05T02:43:17.274Z,25.87
2023-05-05T02:44:17.275Z,25.85
2023-05-05T02:45:17.283Z,25.93
2023-05-05T02:46:17.338Z,25.86
2023-05-05T02:47:17.295Z,25.90
2023-05-05T02:48:17.395Z,25.89
2023-05-05T02:49:17.416Z,25.95
2023-05-05T02:50:17.332Z,25.92
2023-05-05T02:51:17.337Z,25.92
2023-05-05T02:52:17.392Z,25.92
2023-05-05T02:53:17.965Z,25.95
2023-05-05T02:54:17.430Z,25.90
2023-05-05T02:55:17.477Z,25.92
2023-05-05T02:56:17.433Z,25.93
2023-05-05T02:57:17.467Z,25.96
2023-05-05T02:58:17.498Z,25.96
2023-05-05T02:59:17.604Z,25.99
2023-05-05T03:00:17.561Z,25.95
2023-05-05T03:01:17.647Z,25.92
2023-05-05T03:02:17.931Z,25.92
2023-05-05T03:03:17.771Z,25.93
2023-05-05T03:04:17.724Z,25.95
2023-05-05T03:05:17.725Z,25.90
2023-05-05T03:06:17.759Z,25.96
2023-05-05T03:07:17.813Z,25.95
2023-05-05T03:08:17.821Z,25.96
2023-05-05T03:09:17.810Z,25.96
2023-05-05T03:10:17.792Z,25.99
2023-05-05T03:11:17.833Z,25.95
2023-05-05T03:12:17.843Z,25.96
2023-05-05T03:13:17.890Z,25.96
2023-05-05T03:14:17.922Z,25.94
2023-05-05T03:15:17.961Z,25.96
2023-05-05T03:16:18.010Z,26.00
2023-05-05T03:17:17.981Z,25.98
2023-05-05T03:18:18.028Z,25.94
2023-05-05T03:19:18.033Z,25.96
2023-05-05T03:20:18.106Z,25.99
2023-05-05T03:21:18.106Z,25.94
2023-05-05T03:22:18.109Z,25.95
2023-05-05T03:23:18.167Z,25.99
2023-05-05T03:24:18.150Z,25.94
2023-05-05T03:25:18.174Z,25.96
2023-05-05T03:26:18.190Z,25.98
2023-05-05T03:27:18.269Z,25.98
2023-05-05T03:28:18.304Z,25.96
2023-05-05T03:29:18.268Z,25.96
2023-05-05T03:30:18.305Z,25.96
2023-05-05T03:31:18.518Z,25.99
2023-05-05T03:32:18.404Z,26.00
2023-05-05T03:33:18.461Z,26.02
2023-05-05T03:34:18.438Z,25.97
2023-05-05T03:35:18.452Z,26.01
2023-05-05T03:36:18.454Z,26.00
2023-05-05T03:37:18.543Z,26.02
2023-05-05T03:38:18.535Z,25.99
2023-05-05T03:39:18.578Z,25.99
2023-05-05T03:40:18.608Z,25.98
2023-05-05T03:41:18.612Z,25.98
2023-05-05T03:42:18.679Z,25.97
2023-05-05T03:43:18.669Z,25.99
2023-05-05T03:44:18.732Z,26.00
2023-05-05T03:45:18.733Z,26.03
2023-05-05T03:46:18.790Z,26.02
2023-05-05T03:47:18.706Z,26.03
2023-05-05T03:48:18.737Z,26.02
2023-05-05T03:49:18.735Z,26.02
2023-05-05T03:50:18.774Z,26.00
2023-05-05T03:51:18.823Z,26.00
2023-05-05T03:52:18.876Z,26.03
2023-05-05T03:53:18.885Z,25.98
2023-05-05T03:54:18.892Z,25.96
2023-05-05T03:55:18.978Z,26.00
2023-05-05T03:56:18.957Z,26.03
2023-05-05T03:57:18.969Z,25.98
2023-05-05T03:58:18.971Z,25.96
2023-05-05T03:59:18.979Z,26.02
2023-05-05T04:00:19.138Z,25.97
2023-05-05T04:01:19.062Z,26.03
2023-05-05T04:02:19.182Z,25.98
2023-05-05T04:03:19.304Z,25.96
2023-05-05T04:04:19.290Z,26.05
2023-05-05T04:05:19.170Z,26.00
2023-05-05T04:06:19.181Z,25.98
2023-05-05T04:07:19.252Z,26.00
2023-05-05T04:08:19.239Z,26.00
2023-05-05T04:09:19.258Z,25.97
2023-05-05T04:10:19.309Z,26.04
2023-05-05T04:11:19.284Z,26.01
2023-05-05T04:12:19.333Z,26.00
2023-05-05T04:13:19.326Z,25.96
2023-05-05T04:14:19.968Z,26.04
2023-05-05T04:15:19.404Z,26.03
2023-05-05T04:16:19.501Z,26.00
2023-05-05T04:17:19.469Z,26.00
2023-05-05T04:18:19.532Z,26.03
2023-05-05T04:19:19.569Z,25.98
2023-05-05T04:20:19.562Z,26.01
2023-05-05T04:21:19.547Z,25.98
2023-05-05T04:22:19.604Z,25.97
2023-05-05T04:23:19.623Z,26.04
2023-05-05T04:24:20.444Z,26.04
2023-05-05T04:25:19.624Z,26.01
2023-05-05T04:26:19.674Z,25.95
2023-05-05T04:27:19.702Z,25.99
2023-05-05T04:28:21.607Z,25.99
2023-05-05T04:29:19.722Z,26.06
2023-05-05T04:30:19.717Z,26.02
2023-05-05T04:31:19.822Z,26.01
2023-05-05T04:32:19.817Z,26.04
2023-05-05T04:33:19.933Z,26.02
2023-05-05T04:34:19.793Z,26.01
2023-05-05T04:35:19.838Z,25.99
2023-05-05T04:36:19.913Z,26.04
2023-05-05T04:37:19.866Z,26.02
2023-05-05T04:38:19.952Z,26.01
2023-05-05T04:39:19.927Z,25.97
2023-05-05T04:40:19.941Z,25.95
2023-05-05T04:41:20.001Z,25.99
2023-05-05T04:42:19.989Z,26.01
2023-05-05T04:43:20.003Z,26.01
2023-05-05T04:44:20.016Z,25.99
2023-05-05T04:45:20.091Z,26.01
2023-05-05T04:46:20.142Z,26.01
2023-05-05T04:47:20.080Z,25.99
2023-05-05T04:48:20.088Z,25.95
2023-05-05T04:49:20.104Z,26.06
2023-05-05T04:50:20.121Z,26.00
2023-05-05T04:51:20.167Z,25.97
2023-05-05T04:52:20.168Z,25.98
2023-05-05T04:53:20.158Z,26.02
2023-05-05T04:54:20.951Z,26.01
2023-05-05T04:55:20.210Z,26.01
2023-05-05T04:56:20.251Z,25.99
2023-05-05T04:57:20.218Z,25.98
2023-05-05T04:58:20.319Z,25.98
2023-05-05T04:59:20.272Z,25.98
2023-05-05T05:00:20.268Z,25.95
2023-05-05T05:01:20.371Z,26.09
2023-05-05T05:02:20.314Z,26.12
2023-05-05T05:03:20.388Z,26.10
2023-05-05T05:04:20.413Z,26.06
2023-05-05T05:05:20.376Z,26.07
2023-05-05T05:06:20.422Z,26.14
2023-05-05T05:07:20.427Z,26.14
2023-05-05T05:08:20.511Z,26.06
2023-05-05T05:09:20.496Z,26.16
2023-05-05T05:10:20.520Z,26.13
2023-05-05T05:11:20.559Z,26.16
2023-05-05T05:12:20.570Z,26.14
2023-05-05T05:13:20.720Z,26.16
2023-05-05T05:14:20.624Z,26.13
2023-05-05T05:15:20.687Z,26.07
2023-05-05T05:16:20.750Z,26.10
2023-05-05T05:17:20.701Z,26.11
2023-05-05T05:18:20.710Z,26.12
2023-05-05T05:19:20.749Z,26.16
2023-05-05T05:20:20.761Z,26.24
2023-05-05T05:21:20.759Z,26.22
2023-05-05T05:22:20.805Z,26.16
2023-05-05T05:23:20.862Z,26.18
2023-05-05T05:24:20.857Z,26.31
2023-05-05T05:25:20.911Z,26.41
2023-05-05T05:26:20.927Z,26.41
2023-05-05T05:27:20.928Z,26.67
2023-05-05T05:28:21.495Z,26.77
2023-05-05T05:29:21.057Z,26.82
2023-05-05T05:30:21.021Z,26.74
2023-05-05T05:31:21.094Z,26.65
2023-05-05T05:32:21.159Z,26.62
2023-05-05T05:33:21.136Z,26.58
2023-05-05T05:34:21.106Z,26.56
2023-05-05T05:35:21.285Z,26.61
2023-05-05T05:36:21.492Z,26.64
2023-05-05T05:37:21.306Z,26.70
2023-05-05T05:38:21.237Z,26.82
2023-05-05T05:39:21.229Z,26.82
2023-05-05T05:40:21.551Z,26.93
2023-05-05T05:41:22.055Z,26.88
2023-05-05T05:42:21.459Z,26.85
2023-05-05T05:43:21.349Z,26.76
2023-05-05T05:44:21.361Z,26.82
2023-05-05T05:45:21.432Z,26.91
2023-05-05T05:46:22.068Z,26.86
2023-05-05T05:47:21.584Z,26.83
2023-05-05T05:48:21.489Z,26.89
2023-05-05T05:49:21.572Z,26.88
2023-05-05T05:50:22.084Z,26.86
2023-05-05T05:51:22.042Z,26.88
2023-05-05T05:52:22.094Z,26.90
2023-05-05T05:53:22.404Z,26.89
2023-05-05T05:54:22.570Z,26.86
2023-05-05T05:55:21.817Z,26.97
2023-05-05T05:56:21.709Z,26.89
2023-05-05T05:57:22.032Z,26.90
2023-05-05T05:58:23.013Z,26.90
2023-05-05T05:59:22.246Z,27.34
2023-05-05T06:00:22.086Z,27.08
2023-05-05T06:01:21.850Z,27.01
2023-05-05T06:02:22.079Z,27.07
2023-05-05T06:03:22.100Z,27.07
2023-05-05T06:04:22.054Z,27.09
2023-05-05T06:05:21.878Z,27.00
2023-05-05T06:06:21.918Z,27.00
2023-05-05T06:07:21.928Z,26.97
2023-05-05T06:08:24.888Z,26.95
2023-05-05T06:09:21.946Z,26.95
2023-05-05T06:10:28.019Z,27.03
2023-05-05T06:11:22.944Z,26.97
2023-05-05T06:12:21.923Z,26.93
2023-05-05T06:13:21.993Z,26.85
2023-05-05T06:14:22.192Z,26.84
2023-05-05T06:15:21.952Z,26.87
2023-05-05T06:16:21.942Z,26.90
2023-05-05T06:17:22.478Z,26.91
2023-05-05T06:18:21.929Z,26.88
2023-05-05T06:19:21.887Z,26.90
2023-05-05T06:20:21.886Z,26.94
2023-05-05T06:21:22.005Z,26.93
2023-05-05T06:22:21.862Z,26.93
2023-05-05T06:23:21.822Z,26.97
2023-05-05T06:24:21.855Z,26.93
2023-05-05T06:25:21.848Z,27.02
2023-05-05T06:26:21.830Z,26.94
2023-05-05T06:27:21.799Z,26.84
2023-05-05T06:28:22.047Z,26.87
2023-05-05T06:29:21.867Z,26.92
2023-05-05T06:30:22.016Z,27.01
2023-05-05T06:31:21.999Z,26.88
2023-05-05T06:32:22.492Z,27.00
2023-05-05T06:33:21.922Z,26.94
2023-05-05T06:34:22.489Z,26.97
2023-05-05T06:35:21.991Z,27.00
2023-05-05T06:36:22.522Z,26.94
2023-05-05T06:37:22.003Z,26.96
2023-05-05T06:38:22.043Z,26.94
2023-05-05T06:39:22.064Z,26.91
2023-05-05T06:40:22.986Z,26.90
2023-05-05T06:41:22.986Z,26.87
2023-05-05T06:42:22.157Z,26.88
2023-05-05T06:43:22.273Z,26.85
2023-05-05T06:44:22.262Z,26.97
2023-05-05T06:45:22.523Z,26.87
2023-05-05T06:46:22.218Z,26.99
2023-05-05T06:47:22.299Z,26.97
2023-05-05T06:48:22.238Z,26.93
2023-05-05T06:49:22.300Z,27.12
2023-05-05T06:50:22.313Z,27.03
2023-05-05T06:51:23.027Z,27.09
2023-05-05T06:52:22.505Z,27.15
2023-05-05T06:53:23.054Z,27.09
2023-05-05T06:54:22.421Z,27.15
2023-05-05T06:55:22.677Z,27.14
2023-05-05T06:56:24.012Z,27.13
2023-05-05T06:57:22.492Z,27.12
2023-05-05T06:58:22.465Z,27.03
2023-05-05T06:59:23.097Z,26.97
2023-05-05T07:00:22.615Z,27.03
2023-05-05T07:01:22.573Z,26.93
2023-05-05T07:02:24.040Z,26.91
2023-05-05T07:03:22.684Z,26.88
2023-05-05T07:04:23.128Z,26.90
2023-05-05T07:05:22.633Z,26.93
2023-05-05T07:06:22.704Z,26.87
2023-05-05T07:07:22.746Z,26.94
2023-05-05T07:08:22.530Z,26.87
2023-05-05T07:09:22.553Z,26.96
2023-05-05T07:10:24.162Z,26.96
2023-05-05T07:11:22.549Z,26.96
2023-05-05T07:12:22.472Z,26.93
2023-05-05T07:13:24.045Z,26.93
2023-05-05T07:14:24.264Z,26.94
2023-05-05T07:15:28.590Z,26.87
2023-05-05T07:16:23.531Z,26.94
2023-05-05T07:17:22.530Z,26.95
2023-05-05T07:18:22.506Z,26.95
2023-05-05T07:19:22.514Z,27.07
2023-05-05T07:20:22.467Z,27.13
2023-05-05T07:21:23.045Z,27.16
2023-05-05T07:22:23.356Z,27.15
2023-05-05T07:23:22.455Z,27.09
2023-05-05T07:24:22.449Z,27.08
2023-05-05T07:25:22.447Z,27.14
2023-05-05T07:26:22.514Z,27.19
2023-05-05T07:27:22.512Z,27.14
2023-05-05T07:28:22.683Z,27.13
2023-05-05T07:29:22.485Z,27.18
2023-05-05T07:30:22.815Z,27.23
2023-05-05T07:31:22.526Z,27.24
2023-05-05T07:32:22.634Z,27.21
2023-05-05T07:33:22.534Z,27.26
2023-05-05T07:34:22.628Z,27.30
2023-05-05T07:35:23.149Z,27.24
2023-05-05T07:36:24.386Z,27.36
2023-05-05T07:37:22.674Z,27.28
2023-05-05T07:38:24.568Z,27.43
2023-05-05T07:39:23.188Z,27.34
2023-05-05T07:40:24.532Z,27.40
2023-05-05T07:41:22.792Z,27.41
2023-05-05T07:42:23.727Z,27.38
2023-05-05T07:43:22.876Z,27.31
2023-05-05T07:44:23.012Z,27.37
2023-05-05T07:45:23.541Z,27.37
2023-05-05T07:46:23.747Z,27.32
2023-05-05T07:47:23.048Z,27.36
2023-05-05T07:48:23.027Z,27.36
2023-05-05T07:49:23.121Z,27.21
2023-05-05T07:50:24.355Z,27.23
2023-05-05T07:51:23.124Z,27.19
2023-05-05T07:52:37.384Z,27.25
2023-05-05T07:53:24.184Z,27.02
2023-05-05T07:54:23.263Z,26.99
2023-05-05T07:55:23.120Z,26.98
2023-05-05T07:56:23.067Z,26.81
2023-05-05T07:57:23.083Z,26.92
2023-05-05T07:58:23.079Z,26.80
2023-05-05T07:59:23.098Z,26.86
2023-05-05T08:00:23.083Z,26.81
2023-05-05T08:01:23.037Z,26.78
2023-05-05T08:02:24.090Z,26.84
2023-05-05T08:03:23.115Z,26.75
2023-05-05T08:04:23.108Z,26.77
2023-05-05T08:05:23.025Z,26.75
2023-05-05T08:06:23.031Z,26.75
2023-05-05T08:07:23.044Z,26.82
2023-05-05T08:08:23.393Z,26.79
2023-05-05T08:09:23.100Z,26.68
2023-05-05T08:10:23.151Z,26.75
2023-05-05T08:11:27.797Z,26.79
2023-05-05T08:12:23.107Z,26.77
2023-05-05T08:13:23.097Z,26.74
2023-05-05T08:14:23.335Z,26.82
2023-05-05T08:15:23.119Z,26.77
2023-05-05T08:16:23.116Z,26.75
2023-05-05T08:17:23.117Z,26.77
2023-05-05T08:18:23.075Z,26.67
2023-05-05T08:19:29.411Z,26.68
2023-05-05T08:20:24.762Z,26.65
2023-05-05T08:21:23.062Z,26.76
2023-05-05T08:22:23.049Z,26.67
2023-05-05T08:23:23.061Z,26.67
2023-05-05T08:24:23.097Z,26.65
2023-05-05T08:25:23.049Z,26.60
2023-05-05T08:26:23.068Z,26.65
2023-05-05T08:27:22.984Z,26.65
2023-05-05T08:28:25.544Z,26.65
2023-05-05T08:29:24.054Z,26.70
2023-05-05T08:30:23.331Z,26.70
2023-05-05T08:31:23.267Z,26.58
2023-05-05T08:32:23.273Z,26.55
2023-05-05T08:33:23.254Z,26.52
2023-05-05T08:34:23.324Z,26.47
2023-05-05T08:35:23.551Z,26.58
2023-05-05T08:36:23.550Z,26.62
2023-05-05T08:37:23.556Z,26.55
2023-05-05T08:38:23.356Z,26.58
2023-05-05T08:39:23.358Z,26.67
2023-05-05T08:40:23.460Z,26.71
2023-05-05T08:41:23.447Z,26.89
2023-05-05T08:42:36.417Z,26.85
2023-05-05T08:43:24.436Z,26.62
2023-05-05T08:44:23.472Z,26.61
2023-05-05T08:45:23.402Z,26.69
2023-05-05T08:46:23.754Z,26.81
2023-05-05T08:47:23.440Z,26.63
2023-05-05T08:48:23.432Z,26.63
2023-05-05T08:49:23.594Z,26.67
2023-05-05T08:50:23.371Z,26.75
2023-05-05T08:51:23.384Z,26.73
2023-05-05T08:52:23.527Z,26.79
2023-05-05T08:53:23.419Z,26.87
2023-05-05T08:54:23.561Z,26.65
2023-05-05T08:55:23.328Z,26.77
2023-05-05T08:56:23.315Z,26.57
2023-05-05T08:57:23.331Z,26.57
2023-05-05T08:58:23.320Z,26.75
2023-05-05T08:59:23.344Z,26.53
2023-05-05T09:00:23.400Z,26.57
2023-05-05T09:01:23.387Z,26.70
2023-05-05T09:02:23.552Z,26.76
2023-05-05T09:03:24.203Z,26.55
2023-05-05T09:04:23.587Z,26.76
2023-05-05T09:05:23.428Z,26.53
2023-05-05T09:06:23.498Z,26.65
2023-05-05T09:07:23.488Z,26.47
2023-05-05T09:08:23.548Z,26.50
2023-05-05T09:09:26.038Z,26.64
2023-05-05T09:10:23.677Z,26.68
2023-05-05T09:11:23.672Z,26.72
2023-05-05T09:12:24.094Z,26.73
2023-05-05T09:13:23.709Z,26.79
2023-05-05T09:14:23.705Z,26.69
2023-05-05T09:15:23.772Z,26.69
2023-05-05T09:16:23.808Z,26.69
2023-05-05T09:17:23.792Z,26.63
2023-05-05T09:18:24.194Z,26.64
2023-05-05T09:19:24.092Z,26.62
2023-05-05T09:20:23.889Z,26.59
2023-05-05T09:21:24.042Z,26.51
2023-05-05T09:22:23.954Z,26.47
2023-05-05T09:23:24.069Z,26.39
2023-05-05T09:24:24.000Z,26.38
2023-05-05T09:25:24.023Z,26.37
2023-05-05T09:26:24.037Z,26.44
2023-05-05T09:27:24.631Z,26.34
2023-05-05T09:28:24.133Z,26.29
2023-05-05T09:29:24.118Z,26.30
2023-05-05T09:30:24.251Z,26.28
2023-05-05T09:31:24.197Z,26.17
2023-05-05T09:32:24.205Z,26.17
2023-05-05T09:33:24.240Z,26.28
2023-05-05T09:34:24.299Z,26.26
2023-05-05T09:35:25.075Z,26.16
2023-05-05T09:36:24.572Z,26.10
2023-05-05T09:37:25.097Z,25.92
2023-05-05T09:38:24.607Z,26.18
2023-05-05T09:39:24.439Z,26.15
2023-05-05T09:40:24.394Z,25.94
2023-05-05T09:41:24.445Z,26.18
2023-05-05T09:42:24.454Z,26.21
2023-05-05T09:43:24.590Z,26.24
2023-05-05T09:44:24.629Z,26.23
2023-05-05T09:45:24.533Z,26.21
2023-05-05T09:46:24.708Z,26.19
2023-05-05T09:47:29.981Z,26.21
2023-05-05T09:48:25.629Z,26.19
2023-05-05T09:49:24.604Z,26.15
2023-05-05T09:50:24.727Z,26.12
2023-05-05T09:51:24.578Z,26.14
2023-05-05T09:52:24.788Z,26.15
2023-05-05T09:53:25.117Z,26.12
2023-05-05T09:54:27.094Z,26.09
2023-05-05T09:55:24.707Z,26.04
2023-05-05T09:56:24.694Z,26.06
2023-05-05T09:57:24.857Z,26.11
2023-05-05T09:58:24.848Z,26.03
2023-05-05T09:59:24.882Z,26.06
2023-05-05T10:00:24.838Z,26.08
2023-05-05T10:01:24.851Z,26.07
2023-05-05T10:02:24.879Z,26.06
2023-05-05T10:03:24.908Z,25.99
2023-05-05T10:04:24.937Z,26.00
2023-05-05T10:05:25.745Z,25.92
2023-05-05T10:06:24.977Z,25.90
2023-05-05T10:07:24.986Z,25.79
2023-05-05T10:08:24.998Z,25.72
2023-05-05T10:09:25.096Z,25.87
2023-05-05T10:10:26.060Z,25.81
2023-05-05T10:11:25.075Z,25.81
2023-05-05T10:12:25.070Z,25.71
2023-05-05T10:13:25.144Z,25.75
2023-05-05T10:14:25.150Z,25.72
2023-05-05T10:15:26.079Z,25.85
2023-05-05T10:16:27.334Z,25.85
2023-05-05T10:17:25.328Z,25.78
2023-05-05T10:18:25.286Z,25.81
2023-05-05T10:19:25.280Z,25.75
2023-05-05T10:20:25.285Z,25.75
2023-05-05T10:21:25.406Z,25.75
2023-05-05T10:22:25.325Z,25.63
2023-05-05T10:23:25.352Z,25.66
2023-05-05T10:24:25.350Z,25.67
2023-05-05T10:25:25.359Z,25.66
2023-05-05T10:26:25.526Z,25.63
2023-05-05T10:27:25.553Z,25.66
2023-05-05T10:28:25.437Z,25.76
2023-05-05T10:29:25.457Z,25.72
2023-05-05T10:30:25.504Z,25.72
2023-05-05T10:31:26.811Z,25.79
2023-05-05T10:32:51.514Z,25.86
2023-05-05T10:33:32.210Z,25.96
2023-05-05T10:34:26.701Z,25.96
2023-05-05T10:35:25.606Z,25.98
2023-05-05T10:36:25.631Z,25.93
2023-05-05T10:37:25.618Z,25.95
2023-05-05T10:38:26.796Z,25.92
2023-05-05T10:39:25.624Z,25.89
2023-05-05T10:40:25.530Z,26.01
2023-05-05T10:41:25.684Z,25.99
2023-05-05T10:42:25.590Z,26.01
2023-05-05T10:43:25.542Z,25.99
2023-05-05T10:44:26.208Z,25.93
2023-05-05T10:45:25.623Z,25.90
2023-05-05T10:46:25.674Z,25.87
2023-05-05T10:47:25.556Z,25.87
2023-05-05T10:48:25.515Z,25.80
2023-05-05T10:49:26.091Z,25.83
2023-05-05T10:50:26.104Z,25.89
2023-05-05T10:51:38.622Z,25.86
2023-05-05T10:52:26.482Z,25.85
2023-05-05T10:53:25.463Z,25.83
2023-05-05T10:54:25.599Z,25.82
2023-05-05T10:55:25.631Z,25.80
2023-05-05T10:56:25.489Z,25.83
2023-05-05T10:57:25.431Z,25.80
2023-05-05T10:58:25.480Z,25.80
2023-05-05T10:59:25.391Z,25.79
2023-05-05T11:00:25.496Z,25.86
2023-05-05T11:01:25.537Z,25.83
2023-05-05T11:02:25.708Z,25.79
2023-05-05T11:03:25.502Z,25.85
2023-05-05T11:04:25.322Z,25.88
2023-05-05T11:05:25.322Z,25.92
2023-05-05T11:06:25.352Z,25.91
2023-05-05T11:07:25.334Z,25.91
2023-05-05T11:08:25.566Z,25.92
2023-05-05T11:09:25.440Z,25.87
2023-05-05T11:10:25.489Z,25.90
2023-05-05T11:11:25.433Z,25.92
2023-05-05T11:12:25.582Z,25.88
2023-05-05T11:13:25.524Z,25.94
2023-05-05T11:14:25.662Z,25.92
2023-05-05T11:15:25.572Z,25.97
2023-05-05T11:16:25.616Z,25.92
2023-05-05T11:17:25.830Z,25.94
2023-05-05T11:18:25.689Z,25.94
2023-05-05T11:19:26.573Z,25.94
2023-05-05T11:20:25.654Z,25.92
2023-05-05T11:21:26.738Z,25.94
2023-05-05T11:22:25.740Z,25.94
2023-05-05T11:23:25.801Z,25.94
2023-05-05T11:24:25.784Z,25.94
2023-05-05T11:25:26.788Z,25.85
2023-05-05T11:26:26.174Z,25.89
2023-05-05T11:27:25.873Z,25.81
2023-05-05T11:28:25.882Z,25.89
2023-05-05T11:29:25.933Z,25.86
2023-05-05T11:30:25.997Z,25.87
2023-05-05T11:31:26.174Z,25.80
2023-05-05T11:32:26.256Z,25.79
2023-05-05T11:33:26.120Z,25.81
2023-05-05T11:34:26.688Z,25.83
2023-05-05T11:35:26.154Z,25.74
2023-05-05T11:36:26.190Z,25.78
2023-05-05T11:37:26.260Z,25.70
2023-05-05T11:38:26.253Z,25.69
2023-05-05T11:39:26.377Z,25.70
2023-05-05T11:40:26.344Z,25.65
2023-05-05T11:41:26.432Z,25.65
2023-05-05T11:42:26.518Z,25.64
2023-05-05T11:43:26.432Z,25.73
2023-05-05T11:44:26.481Z,25.64
2023-05-05T11:45:26.515Z,25.62
2023-05-05T11:46:26.731Z,25.61
2023-05-05T11:47:26.636Z,25.61
2023-05-05T11:48:26.658Z,25.55
2023-05-05T11:49:26.762Z,25.46
2023-05-05T11:50:26.735Z,25.42
2023-05-05T11:51:26.749Z,25.48
2023-05-05T11:52:26.866Z,25.45
2023-05-05T11:53:27.637Z,25.36
2023-05-05T11:54:26.873Z,25.33
2023-05-05T11:55:27.014Z,25.22
2023-05-05T11:56:27.181Z,25.19
2023-05-05T11:57:27.189Z,25.07
2023-05-05T11:58:27.139Z,25.00
2023-05-05T11:59:27.098Z,24.86
2023-05-05T12:00:27.113Z,24.78
2023-05-05T12:01:27.120Z,24.77
2023-05-05T12:02:27.244Z,24.65
2023-05-05T12:03:27.624Z,24.57
2023-05-05T12:04:27.253Z,24.86
2023-05-05T12:05:27.287Z,24.76
2023-05-05T12:06:27.364Z,24.73
2023-05-05T12:07:27.374Z,24.65
2023-05-05T12:08:27.366Z,24.58
2023-05-05T12:09:27.444Z,24.67
2023-05-05T12:10:27.453Z,24.70
2023-05-05T12:11:27.529Z,24.65
2023-05-05T12:12:27.568Z,24.62
2023-05-05T12:13:27.671Z,24.71
2023-05-05T12:14:27.676Z,24.64
2023-05-05T12:15:27.653Z,24.55
2023-05-05T12:16:27.669Z,24.58
2023-05-05T12:17:27.700Z,24.67
2023-05-05T12:18:27.742Z,24.65
2023-05-05T12:19:27.769Z,24.60
2023-05-05T12:20:27.768Z,24.53
2023-05-05T12:21:27.829Z,24.50
2023-05-05T12:22:27.949Z,24.54
2023-05-05T12:23:27.890Z,24.46
2023-05-05T12:24:27.949Z,24.50
2023-05-05T12:25:28.000Z,24.54
2023-05-05T12:26:28.093Z,24.51
2023-05-05T12:27:28.073Z,24.50
2023-05-05T12:28:28.140Z,24.48
2023-05-05T12:29:28.196Z,24.47
2023-05-05T12:30:28.328Z,24.50
2023-05-05T12:31:28.286Z,24.42
2023-05-05T12:32:28.327Z,24.42
2023-05-05T12:33:28.300Z,24.47
2023-05-05T12:34:28.319Z,24.45
2023-05-05T12:35:28.381Z,24.38
2023-05-05T12:36:29.861Z,24.42
2023-05-05T12:37:28.494Z,24.45
2023-05-05T12:38:28.504Z,24.45
2023-05-05T12:39:28.554Z,24.39
2023-05-05T12:40:28.669Z,24.45
2023-05-05T12:41:28.640Z,24.39
2023-05-05T12:42:28.635Z,24.42
2023-05-05T12:43:28.798Z,24.47
2023-05-05T12:44:28.749Z,24.50
2023-05-05T12:45:28.752Z,24.44
2023-05-05T12:46:28.844Z,24.63
2023-05-05T12:47:28.885Z,24.51
2023-05-05T12:48:28.896Z,24.54
2023-05-05T12:49:28.944Z,24.53
2023-05-05T12:50:29.008Z,24.42
2023-05-05T12:51:29.048Z,24.47
2023-05-05T12:52:29.087Z,24.39